sensor_id;sensor_type;location;lat;lon;timestamp;pressure;altitude;pressure_sealevel;temperature;humidity
16355;BME280;8287;51.644;8.494;2023-03-04T00:02:11;101196.34;;;6.00;76.92
16355;BME280;8287;51.644;8.494;2023-03-04T00:04:38;101198.13;;;5.94;77.37
16355;BME280;8287;51.644;8.494;2023-03-04T00:07:05;101201.81;;;5.93;77.20
16355;BME280;8287;51.644;8.494;2023-03-04T00:09:31;101198.13;;;5.94;77.21
16355;BME280;8287;51.644;8.494;2023-03-04T00:12:01;101198.13;;;5.94;77.27
16355;BME280;8287;51.644;8.494;2023-03-04T00:14:29;101193.16;;;5.98;77.34
16355;BME280;8287;51.644;8.494;2023-03-04T00:16:56;101196.13;;;6.06;76.77
16355;BME280;8287;51.644;8.494;2023-03-04T00:19:23;101199.53;;;6.02;77.10
16355;BME280;8287;51.644;8.494;2023-03-04T00:21:49;101199.53;;;6.02;76.97
16355;BME280;8287;51.644;8.494;2023-03-04T00:24:16;101189.53;;;6.04;76.87
16355;BME280;8287;51.644;8.494;2023-03-04T00:26:43;101201.09;;;6.03;77.06
16355;BME280;8287;51.644;8.494;2023-03-04T00:29:10;101190.59;;;6.03;76.93
16355;BME280;8287;51.644;8.494;2023-03-04T00:31:38;101192.16;;;6.04;77.14
16355;BME280;8287;51.644;8.494;2023-03-04T00:34:05;101196.91;;;6.02;76.78
16355;BME280;8287;51.644;8.494;2023-03-04T00:36:32;101191.13;;;6.05;77.25
16355;BME280;8287;51.644;8.494;2023-03-04T00:38:58;101181.13;;;6.07;77.08
16355;BME280;8287;51.644;8.494;2023-03-04T00:41:25;101181.94;;;6.07;77.09
16355;BME280;8287;51.644;8.494;2023-03-04T00:43:51;101184.03;;;6.10;76.90
16355;BME280;8287;51.644;8.494;2023-03-04T00:46:18;101178.00;;;6.10;76.90
16355;BME280;8287;51.644;8.494;2023-03-04T00:48:46;101178.00;;;6.10;76.77
16355;BME280;8287;51.644;8.494;2023-03-04T00:51:12;101180.63;;;6.10;76.89
16355;BME280;8287;51.644;8.494;2023-03-04T00:53:39;101177.72;;;6.11;76.37
16355;BME280;8287;51.644;8.494;2023-03-04T00:56:06;101184.31;;;6.09;76.33
16355;BME280;8287;51.644;8.494;2023-03-04T00:58:33;101179.34;;;6.12;76.34
16355;BME280;8287;51.644;8.494;2023-03-04T01:00:59;101183.28;;;6.10;76.62
16355;BME280;8287;51.644;8.494;2023-03-04T01:03:26;101182.50;;;6.14;76.26
16355;BME280;8287;51.644;8.494;2023-03-04T01:05:57;101181.22;;;6.17;76.37
16355;BME280;8287;51.644;8.494;2023-03-04T01:08:23;101178.59;;;6.17;76.49
16355;BME280;8287;51.644;8.494;2023-03-04T01:10:50;101176.72;;;6.12;76.30
16355;BME280;8287;51.644;8.494;2023-03-04T01:13:17;101178.59;;;6.17;76.63
16355;BME280;8287;51.644;8.494;2023-03-04T01:15:44;101174.63;;;6.14;76.48
16355;BME280;8287;51.644;8.494;2023-03-04T01:18:11;101166.97;;;6.13;76.15
16355;BME280;8287;51.644;8.494;2023-03-04T01:20:37;101178.31;;;6.18;76.73
16355;BME280;8287;51.644;8.494;2023-03-04T01:23:05;101165.91;;;6.14;76.43
16355;BME280;8287;51.644;8.494;2023-03-04T01:25:32;101173.81;;;6.14;76.77
16355;BME280;8287;51.644;8.494;2023-03-04T01:27:59;101169.59;;;6.13;76.88
16355;BME280;8287;51.644;8.494;2023-03-04T01:30:25;101164.84;;;6.10;76.37
16355;BME280;8287;51.644;8.494;2023-03-04T01:32:52;101164.88;;;6.15;76.56
16355;BME280;8287;51.644;8.494;2023-03-04T01:35:18;101167.50;;;6.15;76.77
16355;BME280;8287;51.644;8.494;2023-03-04T01:37:45;101161.47;;;6.14;76.65
16355;BME280;8287;51.644;8.494;2023-03-04T01:40:13;101157.50;;;6.12;76.45
16355;BME280;8287;51.644;8.494;2023-03-04T01:42:40;101143.28;;;6.13;76.45
16355;BME280;8287;51.644;8.494;2023-03-04T01:45:11;101146.97;;;6.12;76.52
16355;BME280;8287;51.644;8.494;2023-03-04T01:47:39;101144.09;;;6.13;76.44
16355;BME280;8287;51.644;8.494;2023-03-04T01:50:12;101147.50;;;6.14;76.72
16355;BME280;8287;51.644;8.494;2023-03-04T01:52:42;101142.50;;;6.12;76.99
16355;BME280;8287;51.644;8.494;2023-03-04T01:55:15;101141.41;;;6.08;77.18
16355;BME280;8287;51.644;8.494;2023-03-04T01:57:43;101142.47;;;6.07;77.17
16355;BME280;8287;51.644;8.494;2023-03-04T02:00:17;101147.22;;;6.10;76.88
16355;BME280;8287;51.644;8.494;2023-03-04T02:02:46;101138.25;;;6.06;77.10
16355;BME280;8287;51.644;8.494;2023-03-04T02:05:13;101132.72;;;6.03;77.40
16355;BME280;8287;51.644;8.494;2023-03-04T02:07:41;101129.84;;;6.04;77.29
16355;BME280;8287;51.644;8.494;2023-03-04T02:10:09;101140.91;;;6.11;77.16
16355;BME280;8287;51.644;8.494;2023-03-04T02:12:37;101135.63;;;6.11;77.39
16355;BME280;8287;51.644;8.494;2023-03-04T02:15:05;101130.13;;;6.13;77.50
16355;BME280;8287;51.644;8.494;2023-03-04T02:17:32;101122.50;;;6.11;77.26
16355;BME280;8287;51.644;8.494;2023-03-04T02:20:02;101127.47;;;6.08;77.55
16355;BME280;8287;51.644;8.494;2023-03-04T02:22:36;101126.44;;;6.09;77.08
16355;BME280;8287;51.644;8.494;2023-03-04T02:25:08;101125.94;;;6.12;77.39
16355;BME280;8287;51.644;8.494;2023-03-04T02:27:37;101126.97;;;6.11;77.42
16355;BME280;8287;51.644;8.494;2023-03-04T02:30:05;101113.03;;;6.10;77.13
16355;BME280;8287;51.644;8.494;2023-03-04T02:32:32;101121.47;;;6.12;77.11
16355;BME280;8287;51.644;8.494;2023-03-04T02:34:59;101113.28;;;6.09;77.21
16355;BME280;8287;51.644;8.494;2023-03-04T02:37:25;101115.38;;;6.07;77.34
16355;BME280;8287;51.644;8.494;2023-03-04T02:39:52;101111.69;;;6.08;77.65
16355;BME280;8287;51.644;8.494;2023-03-04T02:42:19;101110.66;;;6.09;77.40
16355;BME280;8287;51.644;8.494;2023-03-04T02:44:47;101104.88;;;6.12;77.32
16355;BME280;8287;51.644;8.494;2023-03-04T02:47:16;101110.13;;;6.12;77.71
16355;BME280;8287;51.644;8.494;2023-03-04T02:49:44;101111.72;;;6.13;77.30
16355;BME280;8287;51.644;8.494;2023-03-04T02:52:13;101110.66;;;6.14;76.87
16355;BME280;8287;51.644;8.494;2023-03-04T02:54:40;101109.63;;;6.15;77.05
16355;BME280;8287;51.644;8.494;2023-03-04T02:57:08;101097.56;;;6.19;76.95
16355;BME280;8287;51.644;8.494;2023-03-04T02:59:36;101105.44;;;6.19;77.14
16355;BME280;8287;51.644;8.494;2023-03-04T03:02:04;101099.66;;;6.17;77.04
16355;BME280;8287;51.644;8.494;2023-03-04T03:04:31;101103.31;;;6.16;77.37
16355;BME280;8287;51.644;8.494;2023-03-04T03:06:58;101104.34;;;6.15;77.35
16355;BME280;8287;51.644;8.494;2023-03-04T03:09:25;101097.00;;;6.12;77.08
16355;BME280;8287;51.644;8.494;2023-03-04T03:11:51;101104.41;;;6.20;77.39
16355;BME280;8287;51.644;8.494;2023-03-04T03:14:18;101101.75;;;6.20;77.27
16355;BME280;8287;51.644;8.494;2023-03-04T03:16:44;101098.59;;;6.18;77.51
16355;BME280;8287;51.644;8.494;2023-03-04T03:19:13;101083.59;;;6.18;77.25
16355;BME280;8287;51.644;8.494;2023-03-04T03:21:39;101085.22;;;6.24;77.09
16355;BME280;8287;51.644;8.494;2023-03-04T03:24:06;101091.28;;;6.25;76.91
16355;BME280;8287;51.644;8.494;2023-03-04T03:26:32;101085.50;;;6.28;76.90
16355;BME280;8287;51.644;8.494;2023-03-04T03:28:59;101084.44;;;6.29;76.58
16355;BME280;8287;51.644;8.494;2023-03-04T03:31:26;101083.63;;;6.28;77.01
16355;BME280;8287;51.644;8.494;2023-03-04T03:33:52;101092.09;;;6.30;76.72
16355;BME280;8287;51.644;8.494;2023-03-04T03:36:20;101081.28;;;6.32;76.77
16355;BME280;8287;51.644;8.494;2023-03-04T03:38:47;101083.94;;;6.37;76.96
16355;BME280;8287;51.644;8.494;2023-03-04T03:41:13;101082.38;;;6.36;76.46
16355;BME280;8287;51.644;8.494;2023-03-04T03:43:40;101081.28;;;6.32;76.29
16355;BME280;8287;51.644;8.494;2023-03-04T03:46:07;101084.47;;;6.38;76.37
16355;BME280;8287;51.644;8.494;2023-03-04T03:48:33;101080.25;;;6.38;76.65
16355;BME280;8287;51.644;8.494;2023-03-04T03:51:00;101076.56;;;6.38;76.13
16355;BME280;8287;51.644;8.494;2023-03-04T03:53:28;101074.22;;;6.37;76.67
16355;BME280;8287;51.644;8.494;2023-03-04T03:55:55;101081.31;;;6.37;76.46
16355;BME280;8287;51.644;8.494;2023-03-04T03:58:23;101080.78;;;6.35;76.09
16355;BME280;8287;51.644;8.494;2023-03-04T04:00:51;101083.41;;;6.35;76.23
16355;BME280;8287;51.644;8.494;2023-03-04T04:03:18;101078.94;;;6.35;76.18
16355;BME280;8287;51.644;8.494;2023-03-04T04:05:44;101074.97;;;6.32;76.57
16355;BME280;8287;51.644;8.494;2023-03-04T04:08:12;101081.31;;;6.37;76.55
16355;BME280;8287;51.644;8.494;2023-03-04T04:10:41;101070.22;;;6.30;76.46
16355;BME280;8287;51.644;8.494;2023-03-04T04:13:08;101075.50;;;6.30;76.62
16355;BME280;8287;51.644;8.494;2023-03-04T04:15:34;101073.09;;;6.28;76.54
16355;BME280;8287;51.644;8.494;2023-03-04T04:18:03;101058.66;;;6.26;76.73
16355;BME280;8287;51.644;8.494;2023-03-04T04:20:29;101072.56;;;6.26;76.73
16355;BME280;8287;51.644;8.494;2023-03-04T04:22:56;101068.66;;;6.29;77.01
16355;BME280;8287;51.644;8.494;2023-03-04T04:25:23;101070.22;;;6.25;76.99
16355;BME280;8287;51.644;8.494;2023-03-04T04:27:51;101064.16;;;6.24;76.64
16355;BME280;8287;51.644;8.494;2023-03-04T04:30:18;101064.94;;;6.20;76.67
16355;BME280;8287;51.644;8.494;2023-03-04T04:32:44;101066.78;;;6.24;77.01
16355;BME280;8287;51.644;8.494;2023-03-04T04:35:11;101058.94;;;6.29;76.41
16355;BME280;8287;51.644;8.494;2023-03-04T04:37:38;101056.28;;;6.29;76.67
16355;BME280;8287;51.644;8.494;2023-03-04T04:40:05;101059.69;;;6.30;76.56
16355;BME280;8287;51.644;8.494;2023-03-04T04:42:32;101062.84;;;6.32;76.44
16355;BME280;8287;51.644;8.494;2023-03-04T04:45:00;101060.78;;;6.34;76.54
16355;BME280;8287;51.644;8.494;2023-03-04T04:47:27;101063.94;;;6.36;76.69
16355;BME280;8287;51.644;8.494;2023-03-04T04:49:54;101059.69;;;6.30;76.51
16355;BME280;8287;51.644;8.494;2023-03-04T04:52:20;101066.56;;;6.36;76.42
16355;BME280;8287;51.644;8.494;2023-03-04T04:54:47;101063.13;;;6.35;76.31
16355;BME280;8287;51.644;8.494;2023-03-04T04:57:14;101066.53;;;6.31;76.21
16355;BME280;8287;51.644;8.494;2023-03-04T04:59:40;101068.16;;;6.37;76.40
16355;BME280;8287;51.644;8.494;2023-03-04T05:02:08;101072.38;;;6.38;76.49
16355;BME280;8287;51.644;8.494;2023-03-04T05:04:35;101067.34;;;6.36;76.46
16355;BME280;8287;51.644;8.494;2023-03-04T05:07:02;101061.84;;;6.38;76.28
16355;BME280;8287;51.644;8.494;2023-03-04T05:09:28;101059.44;;;6.36;76.81
16355;BME280;8287;51.644;8.494;2023-03-04T05:11:55;101068.19;;;6.42;76.47
16355;BME280;8287;51.644;8.494;2023-03-04T05:14:21;101056.56;;;6.38;76.76
16355;BME280;8287;51.644;8.494;2023-03-04T05:16:48;101058.69;;;6.40;76.45
16355;BME280;8287;51.644;8.494;2023-03-04T05:19:18;101062.38;;;6.39;76.27
16355;BME280;8287;51.644;8.494;2023-03-04T05:21:45;101070.53;;;6.43;76.39
16355;BME280;8287;51.644;8.494;2023-03-04T05:24:12;101068.19;;;6.42;76.50
16355;BME280;8287;51.644;8.494;2023-03-04T05:26:38;101058.16;;;6.38;76.28
16355;BME280;8287;51.644;8.494;2023-03-04T05:29:05;101063.69;;;6.37;76.66
16355;BME280;8287;51.644;8.494;2023-03-04T05:31:32;101066.06;;;6.43;76.25
16355;BME280;8287;51.644;8.494;2023-03-04T05:33:59;101065.28;;;6.43;76.33
16355;BME280;8287;51.644;8.494;2023-03-04T05:36:27;101066.06;;;6.43;76.52
16355;BME280;8287;51.644;8.494;2023-03-04T05:38:53;101060.28;;;6.42;76.65
16355;BME280;8287;51.644;8.494;2023-03-04T05:41:20;101060.81;;;6.48;76.53
16355;BME280;8287;51.644;8.494;2023-03-04T05:43:47;101059.78;;;6.49;76.90
16355;BME280;8287;51.644;8.494;2023-03-04T05:46:15;101060.28;;;6.46;76.93
16355;BME280;8287;51.644;8.494;2023-03-04T05:48:42;101052.38;;;6.46;76.79
16355;BME280;8287;51.644;8.494;2023-03-04T05:51:09;101059.25;;;6.52;76.86
16355;BME280;8287;51.644;8.494;2023-03-04T05:53:37;101054.75;;;6.53;76.88
16355;BME280;8287;51.644;8.494;2023-03-04T05:56:07;101060.84;;;6.53;76.54
16355;BME280;8287;51.644;8.494;2023-03-04T05:58:34;101061.88;;;6.52;76.71
16355;BME280;8287;51.644;8.494;2023-03-04T06:01:01;101054.25;;;6.46;76.88
16355;BME280;8287;51.644;8.494;2023-03-04T06:03:28;101058.72;;;6.50;76.85
16355;BME280;8287;51.644;8.494;2023-03-04T06:05:55;101059.22;;;6.47;77.34
16355;BME280;8287;51.644;8.494;2023-03-04T06:08:22;101062.94;;;6.51;77.08
16355;BME280;8287;51.644;8.494;2023-03-04T06:10:51;101060.28;;;6.46;77.70
16355;BME280;8287;51.644;8.494;2023-03-04T06:13:18;101063.44;;;6.48;77.85
16355;BME280;8287;51.644;8.494;2023-03-04T06:15:45;101072.66;;;6.51;77.90
16355;BME280;8287;51.644;8.494;2023-03-04T06:18:12;101076.59;;;6.43;78.42
16355;BME280;8287;51.644;8.494;2023-03-04T06:20:39;101078.97;;;6.45;78.14
16355;BME280;8287;51.644;8.494;2023-03-04T06:23:05;101074.47;;;6.40;78.88
16355;BME280;8287;51.644;8.494;2023-03-04T06:25:32;101083.69;;;6.38;79.06
16355;BME280;8287;51.644;8.494;2023-03-04T06:28:03;101081.59;;;6.40;78.56
16355;BME280;8287;51.644;8.494;2023-03-04T06:30:30;101077.88;;;6.36;79.19
16355;BME280;8287;51.644;8.494;2023-03-04T06:32:56;101085.53;;;6.38;79.16
16355;BME280;8287;51.644;8.494;2023-03-04T06:35:23;101081.28;;;6.32;79.59
16355;BME280;8287;51.644;8.494;2023-03-04T06:37:50;101086.53;;;6.27;80.17
16355;BME280;8287;51.644;8.494;2023-03-04T06:40:16;101096.56;;;6.35;79.90
16355;BME280;8287;51.644;8.494;2023-03-04T06:42:43;101102.34;;;6.32;80.10
16355;BME280;8287;51.644;8.494;2023-03-04T06:45:12;101087.09;;;6.34;80.46
16355;BME280;8287;51.644;8.494;2023-03-04T06:47:39;101097.63;;;6.34;80.37
16355;BME280;8287;51.644;8.494;2023-03-04T06:50:11;101102.59;;;6.30;81.00
16355;BME280;8287;51.644;8.494;2023-03-04T06:52:46;101102.34;;;6.32;80.69
16355;BME280;8287;51.644;8.494;2023-03-04T06:55:14;101098.41;;;6.29;80.65
16355;BME280;8287;51.644;8.494;2023-03-04T06:57:41;101100.75;;;6.31;81.09
16355;BME280;8287;51.644;8.494;2023-03-04T07:00:08;101102.31;;;6.27;81.96
16355;BME280;8287;51.644;8.494;2023-03-04T07:02:37;101105.19;;;6.25;81.73
16355;BME280;8287;51.644;8.494;2023-03-04T07:05:04;101096.25;;;6.26;82.15
16355;BME280;8287;51.644;8.494;2023-03-04T07:07:31;101095.22;;;6.27;82.57
16355;BME280;8287;51.644;8.494;2023-03-04T07:09:57;101103.09;;;6.27;82.48
16355;BME280;8287;51.644;8.494;2023-03-04T07:12:24;101093.63;;;6.26;82.94
16355;BME280;8287;51.644;8.494;2023-03-04T07:14:50;101087.59;;;6.31;82.87
16355;BME280;8287;51.644;8.494;2023-03-04T07:17:17;101083.63;;;6.28;82.71
16355;BME280;8287;51.644;8.494;2023-03-04T07:19:45;101086.81;;;6.35;82.45
16355;BME280;8287;51.644;8.494;2023-03-04T07:22:12;101090.53;;;6.39;82.47
16355;BME280;8287;51.644;8.494;2023-03-04T07:24:38;101085.28;;;6.39;82.14
16355;BME280;8287;51.644;8.494;2023-03-04T07:27:05;101098.72;;;6.47;81.85
16355;BME280;8287;51.644;8.494;2023-03-04T07:29:31;101086.34;;;6.48;81.79
16355;BME280;8287;51.644;8.494;2023-03-04T07:31:58;101099.00;;;6.46;81.52
16355;BME280;8287;51.644;8.494;2023-03-04T07:34:24;101092.69;;;6.52;81.65
16355;BME280;8287;51.644;8.494;2023-03-04T07:36:52;101092.16;;;6.50;81.98
16355;BME280;8287;51.644;8.494;2023-03-04T07:39:19;101099.78;;;6.56;81.81
16355;BME280;8287;51.644;8.494;2023-03-04T07:41:46;101105.56;;;6.48;81.68
16355;BME280;8287;51.644;8.494;2023-03-04T07:44:12;101106.63;;;6.52;81.75
16355;BME280;8287;51.644;8.494;2023-03-04T07:46:39;101098.72;;;6.47;81.90
16355;BME280;8287;51.644;8.494;2023-03-04T07:49:06;101100.84;;;6.55;81.71
16355;BME280;8287;51.644;8.494;2023-03-04T07:51:33;101098.19;;;6.45;82.28
16355;BME280;8287;51.644;8.494;2023-03-04T07:54:02;101094.75;;;6.45;82.58
16355;BME280;8287;51.644;8.494;2023-03-04T07:56:30;101099.53;;;6.48;82.92
16355;BME280;8287;51.644;8.494;2023-03-04T07:58:58;101097.72;;;6.63;82.94
16355;BME280;8287;51.644;8.494;2023-03-04T08:01:27;101086.16;;;6.69;82.38
16355;BME280;8287;51.644;8.494;2023-03-04T08:03:54;101086.19;;;6.89;82.25
16355;BME280;8287;51.644;8.494;2023-03-04T08:06:21;101094.94;;;7.05;80.92
16355;BME280;8287;51.644;8.494;2023-03-04T08:08:49;101088.34;;;7.12;80.78
16355;BME280;8287;51.644;8.494;2023-03-04T08:11:21;101091.50;;;7.09;80.03
16355;BME280;8287;51.644;8.494;2023-03-04T08:13:48;101077.25;;;7.15;79.83
16355;BME280;8287;51.644;8.494;2023-03-04T08:16:17;101076.22;;;7.36;79.10
16355;BME280;8287;51.644;8.494;2023-03-04T08:18:45;101065.38;;;7.53;78.88
16355;BME280;8287;51.644;8.494;2023-03-04T08:21:14;101071.44;;;7.63;77.70
16355;BME280;8287;51.644;8.494;2023-03-04T08:23:41;101066.44;;;7.52;78.15
16355;BME280;8287;51.644;8.494;2023-03-04T08:26:09;101071.19;;;7.50;77.99
16355;BME280;8287;51.644;8.494;2023-03-04T08:28:37;101076.22;;;7.36;78.09
16355;BME280;8287;51.644;8.494;2023-03-04T08:31:04;101083.31;;;7.26;78.89
16355;BME280;8287;51.644;8.494;2023-03-04T08:33:32;101073.56;;;7.21;79.63
16355;BME280;8287;51.644;8.494;2023-03-04T08:35:59;101080.72;;;7.21;80.14
16355;BME280;8287;51.644;8.494;2023-03-04T08:38:25;101075.16;;;7.12;80.16
16355;BME280;8287;51.644;8.494;2023-03-04T08:40:53;101071.72;;;7.12;80.92
16355;BME280;8287;51.644;8.494;2023-03-04T08:43:30;101069.63;;;7.09;81.31
16355;BME280;8287;51.644;8.494;2023-03-04T08:45:59;101075.16;;;7.12;82.16
16355;BME280;8287;51.644;8.494;2023-03-04T08:48:26;101085.97;;;7.16;82.70
16355;BME280;8287;51.644;8.494;2023-03-04T08:50:53;101079.38;;;7.08;83.07
16355;BME280;8287;51.644;8.494;2023-03-04T08:53:20;101080.13;;;7.04;83.28
16355;BME280;8287;51.644;8.494;2023-03-04T08:55:47;101091.22;;;7.16;83.30
16355;BME280;8287;51.644;8.494;2023-03-04T08:58:14;101081.50;;;7.26;82.96
16355;BME280;8287;51.644;8.494;2023-03-04T09:00:44;101070.16;;;7.16;82.39
16355;BME280;8287;51.644;8.494;2023-03-04T09:03:14;101070.16;;;7.26;82.77
16355;BME280;8287;51.644;8.494;2023-03-04T09:05:41;101069.63;;;7.19;82.95
16355;BME280;8287;51.644;8.494;2023-03-04T09:08:07;101069.09;;;7.27;82.97
16355;BME280;8287;51.644;8.494;2023-03-04T09:10:34;101062.50;;;7.24;83.53
16355;BME280;8287;51.644;8.494;2023-03-04T09:13:01;101066.75;;;7.25;83.64
16355;BME280;8287;51.644;8.494;2023-03-04T09:15:27;101065.41;;;7.28;83.70
16355;BME280;8287;51.644;8.494;2023-03-04T09:17:54;101070.41;;;7.19;83.78
16355;BME280;8287;51.644;8.494;2023-03-04T09:20:22;101066.47;;;7.27;84.07
16355;BME280;8287;51.644;8.494;2023-03-04T09:22:49;101062.75;;;7.43;83.95
16355;BME280;8287;51.644;8.494;2023-03-04T09:25:15;101066.97;;;7.44;83.38
16355;BME280;8287;51.644;8.494;2023-03-04T09:27:42;101064.59;;;7.47;82.94
16355;BME280;8287;51.644;8.494;2023-03-04T09:30:09;101066.72;;;7.50;82.85
16355;BME280;8287;51.644;8.494;2023-03-04T09:32:36;101060.66;;;7.55;83.80
16355;BME280;8287;51.644;8.494;2023-03-04T09:35:03;101059.34;;;7.52;82.62
16355;BME280;8287;51.644;8.494;2023-03-04T09:37:32;101059.31;;;7.57;82.89
16355;BME280;8287;51.644;8.494;2023-03-04T09:39:59;101063.81;;;7.52;82.91
16355;BME280;8287;51.644;8.494;2023-03-04T09:42:27;101069.88;;;7.62;82.94
16355;BME280;8287;51.644;8.494;2023-03-04T09:44:58;101070.66;;;7.63;82.44
16355;BME280;8287;51.644;8.494;2023-03-04T09:47:25;101058.78;;;7.55;82.56
16355;BME280;8287;51.644;8.494;2023-03-04T09:49:55;101058.00;;;7.50;82.94
16355;BME280;8287;51.644;8.494;2023-03-04T09:52:31;101058.81;;;7.40;83.01
16355;BME280;8287;51.644;8.494;2023-03-04T09:55:14;101059.31;;;7.47;84.10
16355;BME280;8287;51.644;8.494;2023-03-04T09:57:46;101059.34;;;7.42;84.44
16355;BME280;8287;51.644;8.494;2023-03-04T10:00:15;101064.34;;;7.49;84.67
16355;BME280;8287;51.644;8.494;2023-03-04T10:02:55;101044.81;;;7.45;85.43
16355;BME280;8287;51.644;8.494;2023-03-04T10:05:30;101058.81;;;7.50;85.61
16355;BME280;8287;51.644;8.494;2023-03-04T10:08:00;101061.69;;;7.54;86.12
16355;BME280;8287;51.644;8.494;2023-03-04T10:10:35;101044.56;;;7.46;85.57
16355;BME280;8287;51.644;8.494;2023-03-04T10:13:05;101047.19;;;7.41;86.15
16355;BME280;8287;51.644;8.494;2023-03-04T10:15:39;101050.38;;;7.43;85.81
16355;BME280;8287;51.644;8.494;2023-03-04T10:18:15;101045.09;;;7.53;85.85
16355;BME280;8287;51.644;8.494;2023-03-04T10:20:50;101044.03;;;7.59;85.79
16355;BME280;8287;51.644;8.494;2023-03-04T10:23:20;101054.56;;;7.69;85.94
16355;BME280;8287;51.644;8.494;2023-03-04T10:25:50;101052.72;;;7.60;85.59
16355;BME280;8287;51.644;8.494;2023-03-04T10:28:22;101050.91;;;7.50;85.89
16355;BME280;8287;51.644;8.494;2023-03-04T10:30:55;101051.69;;;7.51;86.56
16355;BME280;8287;51.644;8.494;2023-03-04T10:33:25;101054.31;;;7.56;87.09
16355;BME280;8287;51.644;8.494;2023-03-04T10:35:58;101052.97;;;7.63;87.68
16355;BME280;8287;51.644;8.494;2023-03-04T10:38:28;101052.69;;;7.75;87.96
16355;BME280;8287;51.644;8.494;2023-03-04T10:40:59;101048.22;;;7.65;88.02
16355;BME280;8287;51.644;8.494;2023-03-04T10:43:26;101050.84;;;7.65;88.30
16355;BME280;8287;51.644;8.494;2023-03-04T10:45:56;101047.72;;;7.53;88.51
16355;BME280;8287;51.644;8.494;2023-03-04T10:48:25;101051.91;;;7.64;89.07
16355;BME280;8287;51.644;8.494;2023-03-04T10:50:53;101047.41;;;7.70;89.29
16355;BME280;8287;51.644;8.494;2023-03-04T10:53:38;101046.13;;;7.67;89.20
16355;BME280;8287;51.644;8.494;2023-03-04T10:56:33;101047.72;;;7.68;89.34
16355;BME280;8287;51.644;8.494;2023-03-04T10:59:31;101047.16;;;7.71;89.55
16355;BME280;8287;51.644;8.494;2023-03-04T11:02:01;101053.25;;;7.62;90.75
16355;BME280;8287;51.644;8.494;2023-03-04T11:04:33;101046.66;;;7.64;91.09
16355;BME280;8287;51.644;8.494;2023-03-04T11:06:59;101038.75;;;7.69;91.71
16355;BME280;8287;51.644;8.494;2023-03-04T11:09:27;101036.88;;;7.75;92.53
16355;BME280;8287;51.644;8.494;2023-03-04T11:11:58;101031.59;;;7.70;92.43
16355;BME280;8287;51.644;8.494;2023-03-04T11:14:26;101034.50;;;7.78;92.49
16355;BME280;8287;51.644;8.494;2023-03-04T11:16:56;101040.78;;;7.87;92.87
16355;BME280;8287;51.644;8.494;2023-03-04T11:19:28;101039.47;;;7.90;92.68
16355;BME280;8287;51.644;8.494;2023-03-04T11:21:57;101039.72;;;7.88;91.95
16355;BME280;8287;51.644;8.494;2023-03-04T11:24:27;101031.78;;;7.98;92.36
16355;BME280;8287;51.644;8.494;2023-03-04T11:27:01;101030.19;;;7.97;92.24
16355;BME280;8287;51.644;8.494;2023-03-04T11:29:32;101019.91;;;8.01;91.97
16355;BME280;8287;51.644;8.494;2023-03-04T11:32:04;101018.03;;;8.06;91.46
16355;BME280;8287;51.644;8.494;2023-03-04T11:34:36;101019.59;;;8.07;91.12
16355;BME280;8287;51.644;8.494;2023-03-04T11:37:08;101027.00;;;8.00;90.77
16355;BME280;8287;51.644;8.494;2023-03-04T11:39:37;101018.28;;;8.10;90.88
16355;BME280;8287;51.644;8.494;2023-03-04T11:42:14;101012.25;;;7.99;91.02
16355;BME280;8287;51.644;8.494;2023-03-04T11:44:42;101012.78;;;7.96;90.19
16355;BME280;8287;51.644;8.494;2023-03-04T11:47:21;101010.66;;;7.98;90.98
16355;BME280;8287;51.644;8.494;2023-03-04T11:50:10;101008.78;;;8.04;90.84
16355;BME280;8287;51.644;8.494;2023-03-04T11:52:57;101008.53;;;8.00;90.25
16355;BME280;8287;51.644;8.494;2023-03-04T11:55:35;101010.41;;;7.95;90.16
16355;BME280;8287;51.644;8.494;2023-03-04T11:58:17;101000.13;;;7.98;90.46
16355;BME280;8287;51.644;8.494;2023-03-04T12:00:53;101007.47;;;8.06;90.05
16355;BME280;8287;51.644;8.494;2023-03-04T12:03:44;101002.75;;;8.03;90.29
16355;BME280;8287;51.644;8.494;2023-03-04T12:06:25;100990.63;;;8.02;91.18
16355;BME280;8287;51.644;8.494;2023-03-04T12:09:10;100990.06;;;8.10;90.99
16355;BME280;8287;51.644;8.494;2023-03-04T12:11:45;100978.38;;;8.26;90.77
16355;BME280;8287;51.644;8.494;2023-03-04T12:14:26;100985.50;;;8.26;89.87
16355;BME280;8287;51.644;8.494;2023-03-04T12:17:16;100977.78;;;8.39;89.56
16355;BME280;8287;51.644;8.494;2023-03-04T12:20:09;100979.50;;;8.54;88.80
16355;BME280;8287;51.644;8.494;2023-03-04T12:22:43;100977.88;;;8.63;88.43
16355;BME280;8287;51.644;8.494;2023-03-04T12:25:35;100966.25;;;8.64;87.56
16355;BME280;8287;51.644;8.494;2023-03-04T12:31:10;100973.38;;;8.68;87.05
16355;BME280;8287;51.644;8.494;2023-03-04T12:33:47;100964.41;;;8.64;85.94
16355;BME280;8287;51.644;8.494;2023-03-04T12:36:20;100964.13;;;8.66;85.59
16355;BME280;8287;51.644;8.494;2023-03-04T12:38:59;100958.88;;;8.61;85.27
16355;BME280;8287;51.644;8.494;2023-03-04T12:41:38;100954.09;;;8.63;86.01
16355;BME280;8287;51.644;8.494;2023-03-04T12:44:13;100954.91;;;8.58;86.58
16355;BME280;8287;51.644;8.494;2023-03-04T12:46:52;100949.94;;;8.57;87.35
16355;BME280;8287;51.644;8.494;2023-03-04T12:49:39;100951.25;;;8.54;88.14
16355;BME280;8287;51.644;8.494;2023-03-04T12:52:15;100937.00;;;8.55;87.74
16355;BME280;8287;51.644;8.494;2023-03-04T12:54:48;100934.59;;;8.59;87.36
16355;BME280;8287;51.644;8.494;2023-03-04T12:57:18;100937.47;;;8.62;87.85
16355;BME280;8287;51.644;8.494;2023-03-04T12:59:50;100930.91;;;8.55;87.48
16355;BME280;8287;51.644;8.494;2023-03-04T13:02:31;100932.69;;;8.64;87.38
16355;BME280;8287;51.644;8.494;2023-03-04T13:05:07;100919.63;;;8.78;87.43
16355;BME280;8287;51.644;8.494;2023-03-04T13:07:48;100923.59;;;8.80;87.08
16355;BME280;8287;51.644;8.494;2023-03-04T13:10:18;100916.41;;;8.86;86.65
16355;BME280;8287;51.644;8.494;2023-03-04T13:12:46;100920.81;;;8.95;86.01
16355;BME280;8287;51.644;8.494;2023-03-04T13:15:25;100928.03;;;8.85;85.10
16355;BME280;8287;51.644;8.494;2023-03-04T13:17:54;100920.63;;;8.87;84.84
16355;BME280;8287;51.644;8.494;2023-03-04T13:20:24;100916.66;;;8.84;84.74
16355;BME280;8287;51.644;8.494;2023-03-04T13:22:57;100904.66;;;8.97;84.41
16355;BME280;8287;51.644;8.494;2023-03-04T13:25:38;100905.69;;;9.01;84.29